createdAt,value
2019-04-24T00:00:05.296Z,18.40
2019-04-24T00:02:36.731Z,18.60
2019-04-24T00:05:22.775Z,18.70
2019-04-24T00:07:21.036Z,18.70
2019-04-24T00:10:12.931Z,18.60
2019-04-24T00:13:03.069Z,18.70
2019-04-24T00:18:37.466Z,18.80
2019-04-24T00:20:55.104Z,18.70
2019-04-24T00:25:51.576Z,18.80
2019-04-24T00:28:26.766Z,18.70
2019-04-24T00:31:06.018Z,18.80
2019-04-24T00:33:32.982Z,18.70
2019-04-24T00:36:26.397Z,18.60
2019-04-24T00:43:55.511Z,18.70
2019-04-24T00:46:33.323Z,18.60
2019-04-24T00:48:48.492Z,18.60
2019-04-24T00:56:30.002Z,18.60
2019-04-24T00:59:13.296Z,18.70
2019-04-24T01:02:13.253Z,18.70
2019-04-24T01:05:02.232Z,18.60
2019-04-24T01:07:30.203Z,18.70
2019-04-24T01:12:43.373Z,18.60
2019-04-24T01:15:19.182Z,18.50
2019-04-24T01:30:49.073Z,18.40
2019-04-24T01:36:09.332Z,18.20
2019-04-24T01:38:37.569Z,18.00
2019-04-24T01:41:15.555Z,18.10
2019-04-24T01:43:41.776Z,18.10
2019-04-24T01:48:45.896Z,18.40
2019-04-24T01:51:23.192Z,18.50
2019-04-24T01:53:47.589Z,18.10
2019-04-24T01:56:29.253Z,17.70
2019-04-24T01:58:58.108Z,17.50
2019-04-24T02:03:57.057Z,17.60
2019-04-24T02:06:20.633Z,17.60
2019-04-24T02:09:13.999Z,17.60
2019-04-24T02:12:08.204Z,17.60
2019-04-24T02:14:31.546Z,17.50
2019-04-24T02:19:22.885Z,17.50
2019-04-24T02:21:56.079Z,17.50
2019-04-24T02:24:36.823Z,17.60
2019-04-24T02:26:59.543Z,17.50
2019-04-24T02:32:35.113Z,17.30
2019-04-24T02:35:02.877Z,17.30
2019-04-24T02:42:55.574Z,17.00
2019-04-24T02:50:13.398Z,16.90
2019-04-24T02:52:55.661Z,16.90
2019-04-24T02:55:13.651Z,17.00
2019-04-24T02:57:47.393Z,17.20
2019-04-24T03:03:14.910Z,17.00
2019-04-24T03:05:53.563Z,16.90
2019-04-24T03:08:35.387Z,16.90
2019-04-24T03:14:04.136Z,17.00
2019-04-24T03:19:17.977Z,17.10
2019-04-24T03:21:42.403Z,17.10
2019-04-24T03:24:18.936Z,17.10
2019-04-24T03:29:26.622Z,17.00
2019-04-24T03:37:13.019Z,16.80
2019-04-24T03:42:35.251Z,16.80
2019-04-24T03:46:54.138Z,16.80
2019-04-24T04:05:33.137Z,17.00
2019-04-24T04:10:52.176Z,16.80
2019-04-24T04:15:55.059Z,16.70
2019-04-24T04:21:33.166Z,16.70
2019-04-24T04:32:01.435Z,16.60
2019-04-24T04:40:09.395Z,16.70
2019-04-24T04:42:51.986Z,16.70
2019-04-24T04:45:11.442Z,16.70
2019-04-24T04:47:45.108Z,16.70
2019-04-24T05:01:38.835Z,17.00
2019-04-24T05:06:54.139Z,17.50
2019-04-24T05:11:48.774Z,17.60
2019-04-24T05:32:12.318Z,17.70
2019-04-24T05:34:52.693Z,17.70
2019-04-24T05:37:53.122Z,17.60
2019-04-24T05:45:21.275Z,17.90
2019-04-24T05:47:58.979Z,17.60
2019-04-24T05:53:20.013Z,17.50
2019-04-24T05:58:22.285Z,17.70
2019-04-24T06:09:34.788Z,17.70
2019-04-24T06:15:09.045Z,18.10
2019-04-24T06:18:08.973Z,18.10
2019-04-24T06:23:09.227Z,18.20
2019-04-24T06:26:12.807Z,18.10
2019-04-24T06:28:29.585Z,18.00
2019-04-24T06:33:29.631Z,18.10
2019-04-24T06:38:37.432Z,18.10
2019-04-24T06:41:28.516Z,18.10
2019-04-24T06:46:22.187Z,19.10
2019-04-24T06:51:29.445Z,19.40
2019-04-24T06:54:11.148Z,19.30
2019-04-24T07:01:55.807Z,19.30
2019-04-24T07:07:27.604Z,19.50
2019-04-24T07:10:09.012Z,19.50
2019-04-24T07:15:56.818Z,19.70
2019-04-24T07:18:26.323Z,19.70
2019-04-24T07:23:24.584Z,19.70
2019-04-24T07:31:12.502Z,20.00
2019-04-24T07:34:27.230Z,20.00
2019-04-24T07:36:47.671Z,20.10
2019-04-24T07:39:34.819Z,20.20
2019-04-24T07:44:24.839Z,20.80
2019-04-24T07:47:14.786Z,21.10
2019-04-24T07:55:43.050Z,22.80
2019-04-24T07:57:32.105Z,23.30
2019-04-24T08:03:19.190Z,24.00
2019-04-24T08:05:35.347Z,24.40
2019-04-24T08:08:10.537Z,24.40
2019-04-24T08:10:56.827Z,24.20
2019-04-24T08:16:01.144Z,24.00
2019-04-24T08:18:28.044Z,23.80
2019-04-24T08:24:51.380Z,23.50
2019-04-24T08:34:44.759Z,23.80
2019-04-24T08:37:17.628Z,23.90
2019-04-24T08:45:39.920Z,23.80
2019-04-24T08:48:18.590Z,23.70
2019-04-24T08:53:34.490Z,23.50
2019-04-24T08:55:48.753Z,23.50
2019-04-24T09:01:06.468Z,23.30
2019-04-24T09:06:05.615Z,23.10
2019-04-24T09:08:51.878Z,23.00
2019-04-24T09:11:41.645Z,23.00
2019-04-24T09:16:58.455Z,22.90
2019-04-24T09:30:19.417Z,23.20
2019-04-24T09:37:58.354Z,23.50
2019-04-24T09:45:53.480Z,23.30
2019-04-24T09:51:06.429Z,23.30
2019-04-24T09:53:45.526Z,23.30
2019-04-24T09:56:30.897Z,23.20
2019-04-24T09:59:06.640Z,23.30
2019-04-24T10:04:54.568Z,23.20
2019-04-24T10:07:21.394Z,23.20
2019-04-24T10:10:08.618Z,22.90
2019-04-24T10:15:08.641Z,23.70
2019-04-24T10:17:48.894Z,23.90
2019-04-24T10:20:22.392Z,24.20
2019-04-24T10:23:00.167Z,24.30
2019-04-24T10:25:33.323Z,24.40
2019-04-24T10:28:52.080Z,24.40
2019-04-24T10:31:25.270Z,24.40
2019-04-24T10:34:13.024Z,24.50
2019-04-24T10:36:59.352Z,24.40
2019-04-24T10:50:05.387Z,25.30
2019-04-24T10:53:07.784Z,25.00
2019-04-24T10:55:46.440Z,25.20
2019-04-24T11:01:12.473Z,25.10
2019-04-24T11:06:13.301Z,25.60
2019-04-24T11:11:57.856Z,25.70
2019-04-24T11:14:25.039Z,25.80
2019-04-24T11:20:26.055Z,25.50
2019-04-24T11:23:16.646Z,25.40
2019-04-24T11:26:08.530Z,25.20
2019-04-24T11:28:57.521Z,25.40
2019-04-24T11:32:03.661Z,25.40
2019-04-24T11:37:35.495Z,25.30
2019-04-24T11:42:45.848Z,25.40
2019-04-24T11:48:30.847Z,25.30
2019-04-24T11:51:20.974Z,25.30
2019-04-24T11:53:19.509Z,25.20
2019-04-24T11:56:01.886Z,25.20
2019-04-24T12:01:37.616Z,25.30
2019-04-24T12:04:16.595Z,25.30
2019-04-24T12:06:46.677Z,25.30
2019-04-24T12:14:41.441Z,25.00
2019-04-24T12:17:31.152Z,25.20
2019-04-24T12:22:45.987Z,25.00
2019-04-24T12:25:14.240Z,25.10
2019-04-24T12:30:30.587Z,25.40
2019-04-24T12:33:03.028Z,25.30
2019-04-24T12:35:44.455Z,25.30
2019-04-24T12:38:18.461Z,25.20
2019-04-24T12:41:03.570Z,25.00
2019-04-24T12:43:49.543Z,25.00
2019-04-24T12:46:15.698Z,25.00
2019-04-24T12:51:15.324Z,25.10
2019-04-24T12:56:53.161Z,25.10
2019-04-24T13:02:03.512Z,25.30
2019-04-24T13:09:59.261Z,25.40
2019-04-24T13:12:51.291Z,25.30
2019-04-24T13:18:00.217Z,25.40
2019-04-24T13:19:52.466Z,25.40
2019-04-24T13:22:34.047Z,25.50
2019-04-24T13:25:30.056Z,25.50
2019-04-24T13:28:30.452Z,25.50
2019-04-24T13:33:46.328Z,25.40
2019-04-24T13:36:37.432Z,25.50
2019-04-24T13:41:14.302Z,25.60
2019-04-24T13:44:05.969Z,25.60
2019-04-24T13:46:20.421Z,25.60
2019-04-24T13:49:06.603Z,25.70
2019-04-24T13:51:24.041Z,25.70
2019-04-24T13:54:09.739Z,25.60
2019-04-24T13:56:30.202Z,25.70
2019-04-24T13:59:06.217Z,25.70
2019-04-24T14:06:53.044Z,25.80
2019-04-24T14:12:35.870Z,25.80
2019-04-24T14:14:12.363Z,25.80
2019-04-24T14:19:41.949Z,25.80
2019-04-24T14:25:13.094Z,25.60
2019-04-24T14:27:10.084Z,25.60
2019-04-24T14:29:42.893Z,25.70
2019-04-24T14:32:11.438Z,25.80
2019-04-24T14:34:52.756Z,25.80
2019-04-24T14:37:15.596Z,25.70
2019-04-24T14:39:49.827Z,25.70
2019-04-24T14:42:24.607Z,25.70
2019-04-24T14:45:15.108Z,25.70
2019-04-24T14:47:37.964Z,25.60
2019-04-24T14:50:16.537Z,25.60
2019-04-24T14:55:16.453Z,25.80
2019-04-24T15:00:18.368Z,25.90
2019-04-24T15:02:49.312Z,26.00
2019-04-24T15:05:19.935Z,26.00
2019-04-24T15:07:57.601Z,26.10
2019-04-24T15:10:20.957Z,26.10
2019-04-24T15:15:31.637Z,26.20
2019-04-24T15:18:12.663Z,26.30
2019-04-24T15:20:48.405Z,26.20
2019-04-24T15:25:58.593Z,26.30
2019-04-24T15:30:50.968Z,26.30
2019-04-24T15:33:30.229Z,26.10
2019-04-24T15:36:03.089Z,26.00
2019-04-24T15:38:24.244Z,26.00
2019-04-24T15:41:08.975Z,26.00
2019-04-24T15:48:45.230Z,26.10
2019-04-24T15:53:07.139Z,26.10
2019-04-24T15:55:39.726Z,26.10
2019-04-24T15:58:20.089Z,26.20
2019-04-24T16:06:09.343Z,26.10
2019-04-24T16:08:39.083Z,26.10
2019-04-24T16:11:08.939Z,26.10
2019-04-24T16:13:43.858Z,26.10
2019-04-24T16:16:39.647Z,26.10
2019-04-24T16:19:35.046Z,26.10
2019-04-24T16:24:40.327Z,26.00
2019-04-24T16:29:17.754Z,25.80
2019-04-24T16:32:20.748Z,25.80
2019-04-24T16:34:16.660Z,25.80
2019-04-24T16:37:03.498Z,25.90
2019-04-24T16:39:17.653Z,25.80
2019-04-24T16:44:50.272Z,25.70
2019-04-24T16:47:00.726Z,25.70
2019-04-24T16:49:52.213Z,25.70
2019-04-24T16:52:08.443Z,25.70
2019-04-24T16:54:29.741Z,25.80
2019-04-24T16:59:28.771Z,25.60
2019-04-24T17:02:12.173Z,25.50
2019-04-24T17:04:57.263Z,25.60
2019-04-24T17:09:59.257Z,25.40
2019-04-24T17:12:19.966Z,25.30
2019-04-24T17:14:56.439Z,25.30
2019-04-24T17:20:15.260Z,25.10
2019-04-24T17:25:16.323Z,25.10
2019-04-24T17:30:41.058Z,25.00
2019-04-24T17:33:05.278Z,25.00
2019-04-24T17:37:32.887Z,25.00
2019-04-24T17:40:21.710Z,25.00
2019-04-24T17:43:18.778Z,25.00
2019-04-24T17:48:12.533Z,24.90
2019-04-24T17:50:56.714Z,24.90
2019-04-24T17:53:29.990Z,24.90
2019-04-24T17:55:57.614Z,24.90
2019-04-24T17:58:04.556Z,24.80
2019-04-24T18:00:55.585Z,24.80
2019-04-24T18:03:25.664Z,24.90
2019-04-24T18:05:55.930Z,24.90
2019-04-24T18:08:25.781Z,24.90
2019-04-24T18:10:55.461Z,24.90
2019-04-24T18:13:25.196Z,24.90
2019-04-24T18:15:55.485Z,25.00
2019-04-24T18:18:25.407Z,25.00
2019-04-24T18:20:55.345Z,24.90
2019-04-24T18:23:25.182Z,24.80
2019-04-24T18:26:04.282Z,24.70
2019-04-24T18:28:35.117Z,24.80
2019-04-24T18:31:05.986Z,24.80
2019-04-24T18:33:35.718Z,24.90
2019-04-24T18:36:05.679Z,25.00
2019-04-24T18:38:36.424Z,25.00
2019-04-24T18:41:06.220Z,25.10
2019-04-24T18:43:35.905Z,25.00
2019-04-24T18:46:06.625Z,25.00
2019-04-24T18:48:38.797Z,24.90
2019-04-24T18:51:07.962Z,24.70
2019-04-24T18:53:37.783Z,24.80
2019-04-24T18:56:07.546Z,24.40
2019-04-24T18:58:37.459Z,24.00
2019-04-24T19:01:08.166Z,23.30
2019-04-24T19:03:38.362Z,23.10
2019-04-24T19:06:22.354Z,22.90
2019-04-24T19:08:41.309Z,22.50
2019-04-24T19:11:13.097Z,22.50
2019-04-24T19:13:42.943Z,22.30
2019-04-24T19:16:13.439Z,22.00
2019-04-24T19:18:43.985Z,21.70
2019-04-24T19:21:13.706Z,21.70
2019-04-24T19:23:43.531Z,21.50
2019-04-24T19:26:13.590Z,21.30
2019-04-24T19:28:44.348Z,21.10
2019-04-24T19:31:14.572Z,21.00
2019-04-24T19:33:44.387Z,20.80
2019-04-24T19:36:14.463Z,20.80
2019-04-24T19:38:44.447Z,20.50
2019-04-24T19:41:15.089Z,20.60
2019-04-24T19:43:45.099Z,20.30
2019-04-24T19:46:18.591Z,20.20
2019-04-24T19:48:47.120Z,19.90
2019-04-24T19:51:16.911Z,19.70
2019-04-24T19:53:46.661Z,19.30
2019-04-24T19:56:16.711Z,19.30
2019-04-24T19:58:46.407Z,19.00
2019-04-24T20:01:17.404Z,19.20
2019-04-24T20:03:47.059Z,19.00
2019-04-24T20:06:17.423Z,19.00
2019-04-24T20:08:47.432Z,19.10
2019-04-24T20:11:35.554Z,19.00
2019-04-24T20:14:06.371Z,18.70
2019-04-24T20:16:36.200Z,18.70
2019-04-24T20:19:06.022Z,18.80
2019-04-24T20:21:35.695Z,18.70
2019-04-24T20:24:05.439Z,18.80
2019-04-24T20:26:35.188Z,18.30
2019-04-24T20:29:05.002Z,18.50
2019-04-24T20:31:35.837Z,18.20
2019-04-24T20:34:05.499Z,18.00
2019-04-24T20:36:35.174Z,17.40
2019-04-24T20:39:07.232Z,17.20
2019-04-24T20:41:38.544Z,17.20
2019-04-24T20:44:08.259Z,16.60
2019-04-24T20:46:39.140Z,16.50
2019-04-24T20:49:08.811Z,16.20
2019-04-24T20:51:38.491Z,16.60
2019-04-24T20:54:08.154Z,16.60
2019-04-24T20:56:37.830Z,16.40
2019-04-24T20:59:07.515Z,16.50
2019-04-24T21:01:37.275Z,16.30
2019-04-24T21:04:07.026Z,16.10
2019-04-24T21:06:42.051Z,16.10
2019-04-24T21:09:32.548Z,16.40
2019-04-24T21:12:03.774Z,16.60
2019-04-24T21:14:33.514Z,16.50
2019-04-24T21:17:03.217Z,16.50
2019-04-24T21:19:33.971Z,16.30
2019-04-24T21:22:03.959Z,16.10
2019-04-24T21:24:33.630Z,16.00
2019-04-24T21:27:03.378Z,16.10
2019-04-24T21:29:33.497Z,16.20
2019-04-24T21:32:05.590Z,16.20
2019-04-24T21:34:34.716Z,16.30
2019-04-24T21:37:04.463Z,16.20
2019-04-24T21:39:34.185Z,15.90
2019-04-24T21:42:03.972Z,15.60
2019-04-24T21:44:36.003Z,15.20
2019-04-24T21:47:06.006Z,15.00
2019-04-24T21:49:35.683Z,15.20
2019-04-24T21:52:05.431Z,15.40
2019-04-24T21:54:35.173Z,15.60
2019-04-24T21:57:05.122Z,15.90
2019-04-24T21:59:34.815Z,15.90
2019-04-24T22:02:25.171Z,15.90
2019-04-24T22:05:01.568Z,16.10
2019-04-24T22:07:36.735Z,15.90
2019-04-24T22:10:06.527Z,15.80
2019-04-24T22:12:38.106Z,15.70
2019-04-24T22:15:08.423Z,15.80
2019-04-24T22:17:39.270Z,15.90
2019-04-24T22:20:19.124Z,15.60
2019-04-24T22:23:11.575Z,15.40
2019-04-24T22:25:46.860Z,15.10
2019-04-24T22:28:17.083Z,14.80
2019-04-24T22:31:04.605Z,14.70
2019-04-24T22:33:38.404Z,14.80
2019-04-24T22:36:08.189Z,14.70
2019-04-24T22:38:42.187Z,14.90
2019-04-24T22:41:12.321Z,14.70
2019-04-24T22:43:42.188Z,14.60
2019-04-24T22:46:12.271Z,14.60
2019-04-24T22:48:43.554Z,14.60
2019-04-24T22:51:13.239Z,14.60
2019-04-24T22:53:42.910Z,14.60
2019-04-24T22:56:12.595Z,14.50
2019-04-24T22:58:43.019Z,14.60
2019-04-24T23:01:13.056Z,14.50
2019-04-24T23:03:43.926Z,14.50
2019-04-24T23:06:14.155Z,14.00
2019-04-24T23:08:44.791Z,14.00
2019-04-24T23:11:15.403Z,14.30
2019-04-24T23:13:46.306Z,14.50
2019-04-24T23:16:16.125Z,14.50
2019-04-24T23:18:45.939Z,14.50
2019-04-24T23:21:30.510Z,14.40
2019-04-24T23:24:06.977Z,14.50
2019-04-24T23:26:55.723Z,14.50
2019-04-24T23:29:29.803Z,14.60
2019-04-24T23:32:18.563Z,14.90
2019-04-24T23:34:51.256Z,15.00
2019-04-24T23:37:21.050Z,14.70
2019-04-24T23:39:50.719Z,14.70
2019-04-24T23:42:20.466Z,14.60
2019-04-24T23:44:50.162Z,14.60
2019-04-24T23:47:19.830Z,14.30
2019-04-24T23:49:49.498Z,14.30
2019-04-24T23:52:19.251Z,14.40
2019-04-24T23:55:02.497Z,14.30
2019-04-24T23:57:21.601Z,14.20
2019-04-24T23:59:51.905Z,14.20
